Time;durP1;ratioP1;P1;durP2;ratioP2;P2;SDS_P1;SDS_P2;PMS_P1;PMS_P2;Temp;Humidity;BMP_temperature;BMP_pressure;BME280_temperature;BME280_humidity;BME280_pressure;Samples;Min_cycle;Max_cycle;Signal;HPM_P1;HPM_P2
2021/08/12 00:01:20;;;;;;;7.18;4.10;;;19.50;99.90;;;;;;5053628;28;20029;-83
2021/08/12 00:03:46;;;;;;;8.98;4.10;;;19.40;99.90;;;;;;5043563;28;20033;-83
2021/08/12 00:06:12;;;;;;;8.45;3.95;;;19.40;99.90;;;;;;5051680;28;20631;-83
2021/08/12 00:08:38;;;;;;;14.60;4.97;;;19.40;99.90;;;;;;5050576;28;20078;-83
2021/08/12 00:11:05;;;;;;;7.88;4.60;;;19.40;99.90;;;;;;5051735;28;20025;-84
2021/08/12 00:13:30;;;;;;;8.65;4.72;;;19.30;99.90;;;;;;5043928;28;20056;-83
2021/08/12 00:15:56;;;;;;;7.20;3.88;;;19.30;99.90;;;;;;5049668;28;20064;-83
2021/08/12 00:18:21;;;;;;;8.93;4.40;;;19.20;99.90;;;;;;5050783;28;20025;-83
2021/08/12 00:20:47;;;;;;;9.77;4.50;;;19.20;99.90;;;;;;5045151;28;20095;-83
2021/08/12 00:23:13;;;;;;;8.45;4.60;;;19.20;99.90;;;;;;5051290;28;20389;-83
2021/08/12 00:25:39;;;;;;;8.50;4.35;;;19.20;99.90;;;;;;5053400;28;20025;-83
2021/08/12 00:28:05;;;;;;;9.38;4.55;;;19.20;99.90;;;;;;5046987;28;20029;-83
2021/08/12 00:30:31;;;;;;;8.35;4.85;;;19.10;99.90;;;;;;5046361;28;20112;-83
2021/08/12 00:32:56;;;;;;;8.35;4.63;;;19.20;99.90;;;;;;5052755;28;20025;-83
2021/08/12 00:35:22;;;;;;;10.02;4.30;;;19.20;99.90;;;;;;5052778;28;20032;-84
2021/08/12 00:37:48;;;;;;;8.98;4.28;;;19.00;99.90;;;;;;5040285;28;20036;-83
2021/08/12 00:40:16;;;;;;;7.85;4.07;;;19.10;99.90;;;;;;5035400;28;20025;-83
2021/08/12 00:42:42;;;;;;;7.53;4.03;;;19.00;99.90;;;;;;5053177;28;20032;-83
2021/08/12 00:45:08;;;;;;;7.90;4.70;;;19.00;99.90;;;;;;5042122;28;20040;-83
2021/08/12 00:47:34;;;;;;;7.60;3.97;;;18.90;99.90;;;;;;5053394;28;20018;-83
2021/08/12 00:50:00;;;;;;;9.75;4.75;;;18.90;99.90;;;;;;5052040;28;20760;-83
2021/08/12 00:52:26;;;;;;;9.73;4.80;;;18.80;99.90;;;;;;5044080;28;20088;-83
2021/08/12 00:54:54;;;;;;;8.23;4.90;;;18.90;99.90;;;;;;5031370;28;20157;-83
2021/08/12 00:57:20;;;;;;;8.88;4.70;;;18.80;99.90;;;;;;5049934;28;20029;-83
2021/08/12 00:59:46;;;;;;;8.18;4.72;;;18.80;99.90;;;;;;5052469;28;20071;-83
2021/08/12 01:02:13;;;;;;;9.05;5.35;;;18.80;99.90;;;;;;5047854;28;20064;-83
2021/08/12 01:04:43;;;;;;;8.35;5.00;;;18.80;99.90;;;;;;5051599;28;20017;-83
2021/08/12 01:07:16;;;;;;;10.65;5.50;;;18.80;99.90;;;;;;5054646;28;20033;-83
2021/08/12 01:10:14;;;;;;;9.45;5.32;;;18.80;99.90;;;;;;5056412;28;20068;-83
2021/08/12 01:12:55;;;;;;;10.48;5.20;;;18.80;99.90;;;;;;5044512;28;20033;-83
2021/08/12 01:15:32;;;;;;;10.50;5.40;;;18.70;99.90;;;;;;5054826;28;20171;-83
2021/08/12 01:18:10;;;;;;;8.18;4.60;;;18.70;99.90;;;;;;5056136;28;20025;-83
2021/08/12 01:21:08;;;;;;;8.48;4.30;;;18.70;99.90;;;;;;5044759;28;20060;-83
2021/08/12 01:23:34;;;;;;;8.23;4.55;;;18.60;99.90;;;;;;5038856;28;20028;-83
2021/08/12 01:26:02;;;;;;;8.45;5.15;;;18.50;99.90;;;;;;5030486;28;20084;-83
2021/08/12 01:28:34;;;;;;;7.90;4.72;;;18.60;99.90;;;;;;5054132;28;20694;-83
2021/08/12 01:31:19;;;;;;;10.93;5.25;;;18.50;99.90;;;;;;5039465;28;20040;-84
2021/08/12 01:34:11;;;;;;;8.77;5.18;;;18.50;99.90;;;;;;5026109;28;20037;-83
2021/08/12 01:36:42;;;;;;;10.30;4.65;;;18.50;99.90;;;;;;5055745;28;20103;-83
2021/08/12 01:39:11;;;;;;;8.77;4.90;;;18.50;99.90;;;;;;5047785;28;20021;-83
2021/08/12 01:41:38;;;;;;;11.93;5.45;;;18.40;99.90;;;;;;5044559;28;20025;-83
2021/08/12 01:44:06;;;;;;;8.50;4.85;;;18.40;99.90;;;;;;5063199;28;20032;-83
2021/08/12 01:46:34;;;;;;;8.13;4.90;;;18.40;99.90;;;;;;5054942;28;20048;-83
2021/08/12 01:49:02;;;;;;;7.40;4.38;;;18.40;99.90;;;;;;5044311;28;20405;-83
2021/08/12 01:51:28;;;;;;;9.10;4.90;;;18.30;99.90;;;;;;5053410;28;20033;-83
2021/08/12 01:53:55;;;;;;;10.82;5.47;;;18.40;99.90;;;;;;5054895;28;20021;-83
2021/08/12 01:56:22;;;;;;;8.00;4.43;;;18.40;99.90;;;;;;5054467;28;20021;-84
2021/08/12 01:58:48;;;;;;;8.00;4.57;;;18.40;99.90;;;;;;5050372;28;20068;-84
2021/08/12 02:01:14;;;;;;;9.20;5.05;;;18.40;99.90;;;;;;5054178;28;20047;-83
2021/08/12 02:03:41;;;;;;;9.05;4.40;;;18.30;99.90;;;;;;5054632;28;20021;-83
2021/08/12 02:06:09;;;;;;;9.90;4.63;;;18.30;99.90;;;;;;5039388;28;20021;-83
2021/08/12 02:08:34;;;;;;;8.95;4.35;;;18.30;99.90;;;;;;5054395;28;20381;-84
2021/08/12 02:11:00;;;;;;;7.93;4.47;;;18.20;99.90;;;;;;5053978;28;20025;-83
2021/08/12 02:13:28;;;;;;;9.85;5.07;;;18.20;99.90;;;;;;5053124;28;20032;-83
2021/08/12 02:15:54;;;;;;;11.20;5.00;;;18.20;99.90;;;;;;5047458;28;20051;-83
2021/08/12 02:18:19;;;;;;;10.45;4.63;;;18.00;99.90;;;;;;5050489;28;20493;-83
2021/08/12 02:20:54;;;;;;;9.27;4.90;;;18.00;99.90;;;;;;5058209;23;20037;-84
2021/08/12 02:23:40;;;;;;;8.48;5.03;;;18.00;99.90;;;;;;5041228;28;21311;-84
2021/08/12 02:26:14;;;;;;;8.38;5.10;;;18.00;99.90;;;;;;5043888;28;20021;-84
2021/08/12 02:28:41;;;;;;;8.95;5.10;;;18.00;99.90;;;;;;5043033;28;20522;-84
2021/08/12 02:31:11;;;;;;;12.68;4.90;;;18.00;99.90;;;;;;5022716;28;20397;-84
2021/08/12 02:33:38;;;;;;;8.65;5.40;;;18.10;99.90;;;;;;5022296;28;20056;-84
2021/08/12 02:36:05;;;;;;;11.75;5.35;;;18.00;99.90;;;;;;5021173;28;20383;-83
2021/08/12 02:38:33;;;;;;;8.23;4.90;;;18.00;99.90;;;;;;5020764;28;20098;-85
2021/08/12 02:40:59;;;;;;;8.32;4.40;;;18.00;99.90;;;;;;5022116;28;20072;-84
2021/08/12 02:43:26;;;;;;;8.77;4.32;;;18.00;99.90;;;;;;5036761;28;20060;-84
2021/08/12 02:45:55;;;;;;;9.30;5.20;;;18.00;99.90;;;;;;5034062;28;20133;-84
2021/08/12 02:48:27;;;;;;;7.60;4.85;;;17.90;99.90;;;;;;5018673;28;20022;-83
2021/08/12 02:50:55;;;;;;;9.85;5.03;;;17.90;99.90;;;;;;5022416;28;20034;-85
2021/08/12 02:53:21;;;;;;;11.10;5.60;;;17.80;99.90;;;;;;5020899;28;20030;-85
2021/08/12 02:55:48;;;;;;;11.82;5.80;;;17.80;99.90;;;;;;5022035;28;20025;-85
2021/08/12 02:58:14;;;;;;;9.77;4.88;;;17.90;99.90;;;;;;5020022;28;20045;-84
2021/08/12 03:00:40;;;;;;;9.25;5.25;;;17.70;99.90;;;;;;5022533;28;20689;-84
2021/08/12 03:03:08;;;;;;;10.05;5.28;;;17.80;99.90;;;;;;5021934;28;20045;-84
2021/08/12 03:05:36;;;;;;;9.55;4.70;;;17.70;99.90;;;;;;5040608;28;20717;-85
2021/08/12 03:08:03;;;;;;;8.93;4.97;;;17.70;99.90;;;;;;5034862;28;20018;-84
2021/08/12 03:10:30;;;;;;;12.27;5.22;;;17.70;99.90;;;;;;5028957;28;20056;-84
2021/08/12 03:12:58;;;;;;;10.43;5.47;;;17.70;99.90;;;;;;5020377;28;20026;-84
2021/08/12 03:15:25;;;;;;;10.32;5.55;;;17.70;99.90;;;;;;5017978;28;20389;-84
2021/08/12 03:17:52;;;;;;;8.80;5.15;;;17.70;99.90;;;;;;5039171;28;20561;-84
2021/08/12 03:20:18;;;;;;;7.85;4.50;;;17.70;99.90;;;;;;5039369;28;20042;-84
2021/08/12 03:22:43;;;;;;;8.00;4.68;;;17.70;99.90;;;;;;5037860;28;20018;-84
2021/08/12 03:25:10;;;;;;;8.82;5.22;;;17.70;99.90;;;;;;5025097;28;20089;-84
2021/08/12 03:27:35;;;;;;;8.15;4.40;;;17.60;99.90;;;;;;5019934;28;20022;-85
2021/08/12 03:30:01;;;;;;;8.35;4.78;;;17.70;99.90;;;;;;5017582;28;20100;-84
2021/08/12 03:32:27;;;;;;;10.05;5.22;;;17.60;99.90;;;;;;5019405;28;20132;-85
2021/08/12 03:34:53;;;;;;;9.77;5.32;;;17.60;99.90;;;;;;5021145;28;20038;-84
2021/08/12 03:37:18;;;;;;;6.90;4.47;;;17.50;99.90;;;;;;5019570;28;20022;-84
2021/08/12 03:39:44;;;;;;;10.70;4.88;;;17.40;99.90;;;;;;5016299;28;20124;-84
2021/08/12 03:42:10;;;;;;;7.55;4.68;;;17.50;99.90;;;;;;5019388;28;20112;-85
2021/08/12 03:44:36;;;;;;;8.80;5.13;;;17.40;99.90;;;;;;5020075;28;20042;-84
2021/08/12 03:47:01;;;;;;;10.75;5.18;;;17.40;99.90;;;;;;5022089;28;20048;-84
2021/08/12 03:49:27;;;;;;;9.02;5.07;;;17.40;99.90;;;;;;5036408;28;20026;-84
2021/08/12 03:51:53;;;;;;;9.25;5.47;;;17.40;99.90;;;;;;5025430;28;20041;-84
2021/08/12 03:54:18;;;;;;;10.20;5.35;;;17.30;99.90;;;;;;5022093;28;20041;-84
2021/08/12 03:56:44;;;;;;;11.05;5.55;;;17.30;99.90;;;;;;5020264;28;20033;-84
2021/08/12 03:59:09;;;;;;;8.75;5.38;;;17.30;99.90;;;;;;5022081;28;20041;-84
2021/08/12 04:01:35;;;;;;;9.45;4.82;;;17.30;99.90;;;;;;5021755;28;20040;-85
2021/08/12 04:04:01;;;;;;;9.18;4.80;;;17.30;99.90;;;;;;5025830;28;20367;-84
2021/08/12 04:06:26;;;;;;;11.13;5.30;;;17.20;99.90;;;;;;5021249;28;20379;-84
2021/08/12 04:08:52;;;;;;;9.68;5.60;;;17.30;99.90;;;;;;5020518;28;20037;-84
2021/08/12 04:11:18;;;;;;;10.43;5.57;;;17.20;99.90;;;;;;5021506;28;20026;-84
2021/08/12 04:13:44;;;;;;;9.30;5.35;;;17.20;99.90;;;;;;5018993;28;20113;-84
2021/08/12 04:16:10;;;;;;;8.85;5.25;;;17.20;99.90;;;;;;5020326;28;20030;-84
2021/08/12 04:18:35;;;;;;;8.10;5.03;;;17.20;99.90;;;;;;5024170;28;20521;-84
2021/08/12 04:21:01;;;;;;;11.93;4.85;;;17.20;99.90;;;;;;5021926;28;20092;-84
2021/08/12 04:23:27;;;;;;;9.88;5.43;;;17.20;99.90;;;;;;5021060;28;20093;-84
2021/08/12 04:25:53;;;;;;;8.40;5.85;;;17.20;99.90;;;;;;5024604;28;20033;-84
2021/08/12 04:28:19;;;;;;;9.73;5.45;;;17.10;99.90;;;;;;5035593;28;20025;-84
2021/08/12 04:30:44;;;;;;;8.82;5.47;;;17.20;99.90;;;;;;5045249;28;20104;-84
2021/08/12 04:33:10;;;;;;;9.98;5.97;;;17.20;99.90;;;;;;5032705;28;20044;-84
2021/08/12 04:35:36;;;;;;;9.98;5.53;;;17.20;99.90;;;;;;5029579;28;20037;-84
2021/08/12 04:38:01;;;;;;;11.38;5.30;;;17.20;99.90;;;;;;5023476;28;20041;-84
2021/08/12 04:40:27;;;;;;;13.30;6.03;;;17.20;99.90;;;;;;5028550;28;20034;-84
2021/08/12 04:42:53;;;;;;;9.98;5.53;;;17.30;99.90;;;;;;5036963;28;20037;-84
2021/08/12 04:45:21;;;;;;;11.23;5.55;;;17.30;99.90;;;;;;5036309;28;20037;-84
2021/08/12 04:47:47;;;;;;;13.82;5.63;;;17.40;99.90;;;;;;5040736;28;20060;-85
2021/08/12 04:50:13;;;;;;;8.48;5.22;;;17.40;99.90;;;;;;5040758;28;20431;-84
2021/08/12 04:52:39;;;;;;;12.52;5.05;;;17.40;99.90;;;;;;5041933;28;20014;-84
2021/08/12 04:55:07;;;;;;;7.80;4.60;;;17.40;99.90;;;;;;5028747;28;20026;-84
2021/08/12 04:57:33;;;;;;;7.95;4.75;;;17.50;99.90;;;;;;5023404;28;20033;-84
2021/08/12 04:59:58;;;;;;;8.07;5.20;;;17.50;99.90;;;;;;5039892;28;20802;-84
2021/08/12 05:02:24;;;;;;;10.23;4.68;;;17.60;99.90;;;;;;5026040;28;20438;-84
2021/08/12 05:04:49;;;;;;;8.68;4.60;;;17.70;99.90;;;;;;5034467;28;20067;-84
2021/08/12 05:07:15;;;;;;;8.85;4.65;;;17.80;99.90;;;;;;5041229;28;20048;-84
2021/08/12 05:09:41;;;;;;;9.88;5.03;;;17.80;99.90;;;;;;5041605;28;20029;-84
2021/08/12 05:12:07;;;;;;;9.25;5.00;;;17.90;99.90;;;;;;5038936;28;21065;-84
2021/08/12 05:14:32;;;;;;;11.95;5.18;;;18.00;99.90;;;;;;5021806;28;20053;-84
2021/08/12 05:16:58;;;;;;;11.50;5.55;;;18.10;99.90;;;;;;5032347;28;20034;-84
2021/08/12 05:19:24;;;;;;;10.43;5.32;;;18.10;99.90;;;;;;5042063;28;20080;-84
2021/08/12 05:21:49;;;;;;;9.50;5.90;;;18.10;99.90;;;;;;5023957;28;20030;-84
2021/08/12 05:24:15;;;;;;;8.82;5.43;;;18.10;99.90;;;;;;5024802;28;20018;-84
2021/08/12 05:26:40;;;;;;;11.93;5.20;;;18.10;99.90;;;;;;5022928;28;20082;-84
2021/08/12 05:29:07;;;;;;;11.18;5.55;;;18.10;99.90;;;;;;5030174;28;20025;-85
2021/08/12 05:31:33;;;;;;;8.93;4.93;;;18.00;99.90;;;;;;5033045;28;20620;-84
2021/08/12 05:33:59;;;;;;;10.25;5.40;;;18.00;99.90;;;;;;5035060;28;20025;-84
2021/08/12 05:36:24;;;;;;;9.63;5.75;;;18.00;99.90;;;;;;5024205;28;20614;-84
2021/08/12 05:38:50;;;;;;;9.02;5.35;;;18.00;99.90;;;;;;5021471;28;20589;-83
2021/08/12 05:41:16;;;;;;;8.93;5.57;;;18.10;99.90;;;;;;5026817;28;20104;-84
2021/08/12 05:43:41;;;;;;;8.30;5.30;;;18.00;99.90;;;;;;5026432;28;20041;-84
2021/08/12 05:46:07;;;;;;;8.85;5.70;;;17.80;99.90;;;;;;5031208;28;20518;-84
2021/08/12 05:48:33;;;;;;;10.57;5.43;;;17.80;99.90;;;;;;5029352;28;20028;-84
2021/08/12 05:51:00;;;;;;;11.15;5.70;;;17.80;99.90;;;;;;5033306;28;20017;-84
2021/08/12 05:53:29;;;;;;;9.13;5.07;;;17.90;99.90;;;;;;5030313;28;21209;-84
2021/08/12 05:55:55;;;;;;;10.60;5.07;;;18.10;99.90;;;;;;5031949;28;20064;-84
2021/08/12 05:58:21;;;;;;;11.05;6.13;;;18.30;99.90;;;;;;5030452;28;20056;-84
2021/08/12 06:00:46;;;;;;;12.10;5.75;;;18.30;99.90;;;;;;5028258;28;20055;-84
2021/08/12 06:03:14;;;;;;;10.32;5.95;;;18.50;99.90;;;;;;5032877;28;20048;-83
2021/08/12 06:05:40;;;;;;;9.80;5.53;;;18.60;99.90;;;;;;5033161;28;20025;-84
2021/08/12 06:08:08;;;;;;;13.95;5.85;;;18.60;99.90;;;;;;5031547;28;20033;-84
2021/08/12 06:10:35;;;;;;;10.00;5.75;;;18.60;99.90;;;;;;5036015;28;20029;-85
2021/08/12 06:13:02;;;;;;;9.82;5.28;;;18.70;99.90;;;;;;5027133;28;20033;-83
2021/08/12 06:15:29;;;;;;;8.30;5.22;;;18.60;99.90;;;;;;5028322;28;20041;-84
2021/08/12 06:17:55;;;;;;;9.20;5.43;;;18.70;99.90;;;;;;5028903;28;20097;-84
2021/08/12 06:20:22;;;;;;;11.07;5.22;;;18.70;99.90;;;;;;5017139;28;20072;-84
2021/08/12 06:22:49;;;;;;;11.18;5.80;;;18.70;99.90;;;;;;5031113;28;20123;-84
2021/08/12 06:25:16;;;;;;;11.57;5.70;;;18.80;99.90;;;;;;5020057;28;20026;-84
2021/08/12 06:27:43;;;;;;;11.35;5.60;;;18.90;99.90;;;;;;5027515;28;20167;-83
2021/08/12 06:30:11;;;;;;;7.90;4.95;;;18.90;99.90;;;;;;5029031;28;20036;-82
2021/08/12 06:32:37;;;;;;;9.95;5.78;;;19.00;99.90;;;;;;5032004;28;20075;-84
2021/08/12 06:35:07;;;;;;;10.68;5.50;;;19.00;99.90;;;;;;5032088;28;21216;-82
2021/08/12 06:37:49;;;;;;;11.80;5.20;;;19.00;99.90;;;;;;5029496;28;20026;-83
2021/08/12 06:40:28;;;;;;;11.40;5.60;;;19.00;99.90;;;;;;5029854;28;20076;-80
2021/08/12 06:42:54;;;;;;;9.18;5.00;;;19.10;99.90;;;;;;5027970;28;20022;-83
2021/08/12 06:45:20;;;;;;;12.88;5.68;;;19.20;99.90;;;;;;5030091;28;20055;-83
2021/08/12 06:47:47;;;;;;;9.38;5.57;;;19.40;99.90;;;;;;5033970;28;20486;-83
2021/08/12 06:50:17;;;;;;;12.63;6.15;;;19.50;99.90;;;;;;5032989;28;20036;-84
2021/08/12 06:52:43;;;;;;;11.07;6.32;;;19.60;99.90;;;;;;5027172;28;20030;-88
2021/08/12 06:55:09;;;;;;;8.93;5.22;;;19.80;99.90;;;;;;5022334;28;20371;-86
2021/08/12 06:57:35;;;;;;;9.40;5.22;;;19.70;99.90;;;;;;5024132;28;20083;-85
2021/08/12 07:00:01;;;;;;;8.40;4.75;;;19.80;99.90;;;;;;5017233;28;20030;-88
2021/08/12 07:02:26;;;;;;;9.93;4.97;;;19.90;99.90;;;;;;5021214;28;20486;-88
2021/08/12 07:04:52;;;;;;;11.88;5.35;;;20.00;99.90;;;;;;5027839;28;20022;-88
2021/08/12 07:07:18;;;;;;;9.18;4.88;;;20.30;99.90;;;;;;5022318;28;20040;-88
2021/08/12 07:09:47;;;;;;;10.60;5.28;;;20.40;99.90;;;;;;5028193;28;20087;-88
2021/08/12 07:12:13;;;;;;;9.70;4.97;;;20.50;99.90;;;;;;5026156;28;20064;-87
2021/08/12 07:14:43;;;;;;;8.07;4.20;;;20.60;99.90;;;;;;5018691;28;20053;-88
2021/08/12 07:17:10;;;;;;;9.40;5.22;;;20.60;99.90;;;;;;5027647;28;20025;-87
2021/08/12 07:19:36;;;;;;;9.73;4.82;;;20.60;99.90;;;;;;5025428;28;20065;-88
2021/08/12 07:22:02;;;;;;;9.13;4.55;;;20.70;99.90;;;;;;5026688;28;20041;-87
2021/08/12 07:24:28;;;;;;;10.80;4.68;;;20.70;99.90;;;;;;5025684;28;20176;-88
2021/08/12 07:26:53;;;;;;;11.13;4.80;;;20.80;99.90;;;;;;5015353;28;20029;-88
2021/08/12 07:29:20;;;;;;;8.73;4.75;;;21.00;99.90;;;;;;5009078;28;20025;-88
2021/08/12 07:31:47;;;;;;;12.82;4.68;;;21.10;99.90;;;;;;5011140;28;20037;-88
2021/08/12 07:34:13;;;;;;;11.07;4.97;;;21.40;99.90;;;;;;5017805;28;20048;-88
2021/08/12 07:36:38;;;;;;;10.68;4.60;;;21.50;99.90;;;;;;5011591;28;20550;-88
2021/08/12 07:39:05;;;;;;;7.05;4.10;;;21.70;99.90;;;;;;5010806;28;20057;-88
2021/08/12 07:41:33;;;;;;;8.25;4.40;;;21.90;99.90;;;;;;5014485;28;20057;-89
2021/08/12 07:43:58;;;;;;;10.35;4.43;;;22.00;99.90;;;;;;5011863;28;20025;-88
2021/08/12 07:46:24;;;;;;;6.65;4.25;;;22.10;99.90;;;;;;5021278;28;20034;-88
2021/08/12 07:48:51;;;;;;;12.68;4.20;;;22.20;99.90;;;;;;5019117;28;20026;-88
2021/08/12 07:51:18;;;;;;;13.68;4.45;;;22.40;99.90;;;;;;5028466;28;20665;-88
2021/08/12 07:53:45;;;;;;;9.50;4.40;;;22.60;99.90;;;;;;5026695;28;20089;-88
2021/08/12 07:56:12;;;;;;;8.73;4.07;;;22.70;99.90;;;;;;5021295;28;20168;-88
2021/08/12 07:58:37;;;;;;;8.70;4.18;;;22.90;99.90;;;;;;5026311;28;20044;-88
2021/08/12 08:01:03;;;;;;;7.97;4.65;;;23.00;99.90;;;;;;5011260;28;20018;-88
2021/08/12 08:03:29;;;;;;;7.80;4.47;;;23.10;99.90;;;;;;5019788;28;20029;-88
2021/08/12 08:05:55;;;;;;;7.75;4.00;;;23.10;99.90;;;;;;5025356;28;20437;-88
2021/08/12 08:08:21;;;;;;;8.80;4.20;;;23.30;99.90;;;;;;5026194;28;20112;-89
2021/08/12 08:10:47;;;;;;;8.20;3.70;;;23.40;99.90;;;;;;5021631;28;20113;-87
2021/08/12 08:13:12;;;;;;;7.43;3.80;;;23.60;99.90;;;;;;5027275;28;20044;-86
2021/08/12 08:15:38;;;;;;;6.88;3.72;;;23.80;99.90;;;;;;5025744;28;20056;-87
2021/08/12 08:18:13;;;;;;;7.97;3.17;;;23.80;99.90;;;;;;5026195;28;20529;-86
2021/08/12 08:20:38;;;;;;;8.35;3.60;;;23.80;99.90;;;;;;5038779;28;20034;-88
2021/08/12 08:23:06;;;;;;;6.20;3.45;;;23.90;99.90;;;;;;5027305;28;20544;-87
2021/08/12 08:25:32;;;;;;;10.30;3.38;;;23.90;99.90;;;;;;5029033;28;20441;-87
2021/08/12 08:27:59;;;;;;;6.03;3.10;;;24.10;99.90;;;;;;5021909;28;20025;-88
2021/08/12 08:30:26;;;;;;;8.43;3.88;;;24.20;99.90;;;;;;5027571;28;20049;-88
2021/08/12 08:32:52;;;;;;;8.73;3.80;;;24.20;99.90;;;;;;5025481;28;20509;-87
2021/08/12 08:35:18;;;;;;;5.55;3.22;;;24.20;99.90;;;;;;5017364;28;20033;-87
2021/08/12 08:37:44;;;;;;;6.22;3.35;;;24.50;99.90;;;;;;5028414;28;20669;-87
2021/08/12 08:40:10;;;;;;;11.93;3.80;;;24.60;99.90;;;;;;5029506;28;20025;-87
2021/08/12 08:42:38;;;;;;;7.97;3.97;;;24.80;99.90;;;;;;5030462;28;20079;-86
2021/08/12 08:45:05;;;;;;;7.75;3.60;;;24.70;99.90;;;;;;5017042;28;20487;-87
2021/08/12 08:47:31;;;;;;;7.35;3.78;;;24.80;99.90;;;;;;5013025;28;20076;-88
2021/08/12 08:49:58;;;;;;;6.40;3.78;;;24.90;99.90;;;;;;5031133;28;20023;-88
2021/08/12 08:52:25;;;;;;;8.75;3.75;;;24.80;99.90;;;;;;5028764;28;20063;-86
2021/08/12 08:54:51;;;;;;;7.10;3.78;;;24.90;99.90;;;;;;5011301;28;20018;-86
2021/08/12 08:57:17;;;;;;;8.95;3.83;;;25.10;99.90;;;;;;5027135;28;20034;-87
2021/08/12 08:59:44;;;;;;;6.40;3.33;;;25.30;99.90;;;;;;5026639;28;20398;-86
2021/08/12 09:02:09;;;;;;;6.70;3.50;;;25.30;99.90;;;;;;5029249;28;20482;-86
2021/08/12 09:04:36;;;;;;;9.13;3.75;;;25.40;99.90;;;;;;5017125;28;20036;-86
2021/08/12 09:07:03;;;;;;;6.90;3.80;;;25.40;99.90;;;;;;5013733;28;20570;-86
2021/08/12 09:09:39;;;;;;;10.27;3.80;;;25.60;99.90;;;;;;5018907;28;20124;-86
2021/08/12 09:12:06;;;;;;;5.93;3.40;;;25.60;99.90;;;;;;5029732;28;20026;-87
2021/08/12 09:14:42;;;;;;;6.70;3.63;;;25.60;99.90;;;;;;5012385;28;20030;-87
2021/08/12 09:17:24;;;;;;;8.77;3.47;;;25.70;99.90;;;;;;5020839;28;20525;-86
2021/08/12 09:20:13;;;;;;;7.18;3.67;;;25.90;99.90;;;;;;5021877;28;20030;-87
2021/08/12 09:22:51;;;;;;;7.65;3.55;;;25.80;99.90;;;;;;5032215;28;20052;-87
2021/08/12 09:25:50;;;;;;;7.00;3.80;;;25.80;99.90;;;;;;5041477;28;20048;-87
2021/08/12 09:28:17;;;;;;;6.25;3.42;;;26.10;99.90;;;;;;5023305;28;20034;-87
2021/08/12 09:31:05;;;;;;;6.90;3.22;;;26.40;99.90;;;;;;5031431;28;20079;-87
2021/08/12 09:33:45;;;;;;;10.40;4.88;;;26.70;99.90;;;;;;5029472;28;20038;-86
2021/08/12 09:36:30;;;;;;;7.22;3.50;;;27.00;99.90;;;;;;5041372;28;20398;-87
2021/08/12 09:39:14;;;;;;;6.68;3.40;;;27.20;99.90;;;;;;5025659;28;20576;-87
2021/08/12 09:41:46;;;;;;;7.35;3.63;;;27.40;99.90;;;;;;5025808;28;20112;-87
2021/08/12 09:44:31;;;;;;;9.77;3.40;;;27.50;99.90;;;;;;5029248;28;20486;-86
2021/08/12 09:46:58;;;;;;;8.20;3.72;;;27.80;99.90;;;;;;5027920;28;20029;-87
2021/08/12 09:49:24;;;;;;;7.38;2.97;;;28.00;99.90;;;;;;5041723;28;20026;-87
2021/08/12 09:51:50;;;;;;;5.85;3.30;;;28.30;99.90;;;;;;5028130;28;20022;-88
2021/08/12 09:54:28;;;;;;;6.57;3.10;;;28.60;99.90;;;;;;5026587;28;20106;-88
2021/08/12 09:56:54;;;;;;;6.28;3.00;;;29.00;99.70;;;;;;5023544;28;20048;-88
2021/08/12 09:59:20;;;;;;;5.32;3.22;;;29.30;97.40;;;;;;5030815;28;20028;-88
2021/08/12 10:02:06;;;;;;;7.57;3.00;;;29.30;98.40;;;;;;5040894;28;20473;-88
2021/08/12 10:04:32;;;;;;;7.20;3.13;;;29.10;97.80;;;;;;5053896;28;20032;-87
2021/08/12 10:07:00;;;;;;;5.25;3.08;;;29.30;98.40;;;;;;5035344;28;20174;-88
2021/08/12 10:09:40;;;;;;;6.88;3.00;;;29.40;97.70;;;;;;5034716;28;20498;-88
2021/08/12 10:12:06;;;;;;;6.75;2.85;;;29.20;95.70;;;;;;5034353;28;20020;-88
2021/08/12 10:14:32;;;;;;;6.22;2.85;;;29.20;96.50;;;;;;5041802;28;20017;-87
2021/08/12 10:16:58;;;;;;;9.35;3.25;;;29.40;97.20;;;;;;5033268;28;20021;-88
2021/08/12 10:19:24;;;;;;;9.52;3.38;;;29.50;97.40;;;;;;5017060;28;20025;-86
2021/08/12 10:21:49;;;;;;;6.50;2.80;;;29.50;95.90;;;;;;5025735;28;20585;-86
2021/08/12 10:24:18;;;;;;;6.70;3.08;;;29.40;96.20;;;;;;5025439;28;20053;-86
2021/08/12 10:26:46;;;;;;;8.55;3.20;;;29.50;96.20;;;;;;5022585;28;20072;-87
2021/08/12 10:29:13;;;;;;;5.88;3.03;;;29.50;95.20;;;;;;5021046;28;20095;-86
2021/08/12 10:31:44;;;;;;;6.13;3.30;;;29.60;96.10;;;;;;5018579;28;20030;-87
2021/08/12 10:34:11;;;;;;;;;;;29.70;94.80;;;;;;5013568;28;20026;-86
2021/08/12 10:36:37;;;;;;;7.22;3.00;;;29.90;94.80;;;;;;5020383;28;19944;-87
2021/08/12 10:39:05;;;;;;;7.20;3.60;;;29.90;94.90;;;;;;5022086;28;20075;-87
2021/08/12 10:41:35;;;;;;;5.45;3.10;;;30.00;93.80;;;;;;5014557;28;20026;-84
2021/08/12 10:44:01;;;;;;;7.60;3.25;;;30.40;93.60;;;;;;5017472;28;20037;-87
2021/08/12 10:46:39;;;;;;;6.22;3.42;;;30.50;94.00;;;;;;5018808;28;20037;-87
2021/08/12 10:49:27;;;;;;;5.47;3.35;;;30.70;92.80;;;;;;5028216;28;20034;-87
2021/08/12 10:52:03;;;;;;;5.82;3.22;;;30.30;92.20;;;;;;5021647;28;20113;-88
2021/08/12 10:54:32;;;;;;;8.52;3.10;;;30.50;92.10;;;;;;5021631;28;20022;-86
2021/08/12 10:57:18;;;;;;;6.70;3.00;;;30.90;92.60;;;;;;5019713;28;20934;-87
2021/08/12 10:59:45;;;;;;;5.43;3.53;;;30.90;92.70;;;;;;5031467;28;20033;-88
2021/08/12 11:02:30;;;;;;;6.90;3.10;;;30.90;92.50;;;;;;5022849;28;20052;-87
2021/08/12 11:05:01;;;;;;;6.03;3.53;;;30.40;93.00;;;;;;5026408;28;20026;-88
2021/08/12 11:07:36;;;;;;;7.25;3.35;;;30.20;92.70;;;;;;5020301;28;20041;-88
2021/08/12 11:10:06;;;;;;;10.13;3.80;;;30.10;92.90;;;;;;5020276;28;20108;-88
2021/08/12 11:12:51;;;;;;;;;;;30.00;93.20;;;;;;5014435;28;20025;-89
2021/08/12 11:15:16;;;;;;;5.55;3.15;;;29.90;92.10;;;;;;5028267;28;19909;-89
2021/08/12 11:17:53;;;;;;;6.55;3.67;;;29.80;92.20;;;;;;5029651;28;20027;-89
2021/08/12 11:20:31;;;;;;;6.10;3.72;;;29.90;92.80;;;;;;5018041;28;20034;-88
2021/08/12 11:23:17;;;;;;;7.47;3.45;;;30.10;92.40;;;;;;5018780;28;20148;-88
2021/08/12 11:26:09;;;;;;;8.98;3.75;;;30.10;92.30;;;;;;5022906;28;20075;-88
2021/08/12 11:28:39;;;;;;;9.52;4.35;;;30.10;92.00;;;;;;5014262;28;20069;-87
2021/08/12 11:31:06;;;;;;;5.13;3.60;;;29.90;91.90;;;;;;5017534;28;20033;-88
2021/08/12 11:33:33;;;;;;;5.40;3.47;;;30.10;92.90;;;;;;5030095;28;20029;-88
2021/08/12 11:36:29;;;;;;;10.55;3.83;;;30.10;92.00;;;;;;5031458;28;20025;-87
2021/08/12 11:38:59;;;;;;;7.55;3.67;;;30.00;91.90;;;;;;5002248;28;20602;-88
2021/08/12 11:41:27;;;;;;;8.40;4.17;;;30.10;92.20;;;;;;5017982;28;20033;-88
2021/08/12 11:43:54;;;;;;;7.45;4.15;;;30.20;92.40;;;;;;5016767;28;20067;-87
2021/08/12 11:46:20;;;;;;;9.50;3.92;;;30.30;91.90;;;;;;5027912;28;20118;-88
2021/08/12 11:48:46;;;;;;;7.03;3.80;;;30.60;91.50;;;;;;5026415;28;20049;-88
2021/08/12 11:51:13;;;;;;;7.00;3.97;;;30.80;92.00;;;;;;5029823;28;20022;-89
2021/08/12 11:53:49;;;;;;;7.15;4.03;;;31.50;91.90;;;;;;5019968;28;20013;-89
2021/08/12 11:56:17;;;;;;;5.90;4.05;;;32.30;90.60;;;;;;5022807;28;20032;-87
2021/08/12 11:58:48;;;;;;;8.80;3.80;;;32.40;87.90;;;;;;5021434;28;20029;-87
2021/08/12 12:01:23;;;;;;;7.13;4.30;;;32.60;88.60;;;;;;5028274;28;20033;-88
2021/08/12 12:03:55;;;;;;;8.30;4.10;;;32.50;87.90;;;;;;5027076;28;20022;-86
2021/08/12 12:06:49;;;;;;;7.55;4.00;;;32.50;86.60;;;;;;5013111;28;20401;-79
2021/08/12 12:09:35;;;;;;;7.25;4.10;;;32.20;86.70;;;;;;5028393;28;20108;-87
2021/08/12 12:12:04;;;;;;;8.02;3.75;;;32.10;87.50;;;;;;5009418;28;20057;-87
2021/08/12 12:14:40;;;;;;;7.95;3.75;;;32.10;86.80;;;;;;5023426;28;20093;-88
2021/08/12 12:17:24;;;;;;;7.13;3.83;;;32.40;86.50;;;;;;5013327;28;20022;-88
2021/08/12 12:20:06;;;;;;;9.57;3.95;;;32.40;85.50;;;;;;5017664;28;20426;-87
2021/08/12 12:22:34;;;;;;;6.13;3.70;;;32.10;85.20;;;;;;5025012;28;20038;-88
2021/08/12 12:25:01;;;;;;;6.53;4.10;;;32.20;83.80;;;;;;5021282;28;20648;-87
2021/08/12 12:27:27;;;;;;;7.07;3.85;;;32.60;82.20;;;;;;5024563;28;20128;-86
2021/08/12 12:30:01;;;;;;;6.05;3.63;;;32.70;83.60;;;;;;5013335;28;20045;-88
2021/08/12 12:32:27;;;;;;;11.50;4.25;;;32.90;83.50;;;;;;5008938;28;20029;-87
2021/08/12 12:34:55;;;;;;;7.25;3.95;;;32.90;82.30;;;;;;5015742;28;20026;-88
2021/08/12 12:37:22;;;;;;;6.82;3.97;;;33.10;80.80;;;;;;5018201;28;20044;-87
2021/08/12 12:39:51;;;;;;;6.80;3.63;;;32.60;79.40;;;;;;5010610;28;20029;-88
2021/08/12 12:42:19;;;;;;;8.52;3.92;;;32.70;80.70;;;;;;5015093;28;20048;-87
2021/08/12 12:45:00;;;;;;;5.82;4.07;;;32.80;80.60;;;;;;5008952;28;20026;-83
2021/08/12 12:47:29;;;;;;;7.88;3.90;;;32.70;81.60;;;;;;5023480;28;20129;-87
2021/08/12 12:50:18;;;;;;;7.63;3.97;;;32.40;82.80;;;;;;5009578;28;20037;-88
2021/08/12 12:52:54;;;;;;;6.00;3.70;;;32.30;82.50;;;;;;5020647;28;20033;-87
2021/08/12 12:55:22;;;;;;;6.78;3.60;;;32.30;81.30;;;;;;5009957;28;20021;-87